Yuncos, Spain
Current Conditions -  °F | °C
As of 3:00 PM on Sunday 21 Dec 2014 (Local Time) from LEGT Reporting Station
Clear Clear  
Wind Chill: 54°   Ceiling: Unl
Heat Index: 54°   Visibility: 6mi
Dew Point: 41°   Wind: 3mph
Humidity: 62%   Direction: NA
Pressure: 30.45"   Gusts: NA
Location:  40.09°N, 3.87°W
Report Text: LEGT 211400Z VRB03KT CAVOK 12/05 Q1031
Loading
Personal Weather Stations






























Interactive Weather Map New forecast layout! Learn more

10-Day Weather Forecast

Advertisements
Track Severe Weather on mobile